sensor_id;sensor_type;location;lat;lon;timestamp;temperature;humidity
50969;DHT22;36982;51.474;7.228;2023-06-22T00:00:59;21.90;99.90
50969;DHT22;36982;51.474;7.228;2023-06-22T00:03:26;21.90;99.90
50969;DHT22;36982;51.474;7.228;2023-06-22T00:05:55;21.80;99.90
50969;DHT22;36982;51.474;7.228;2023-06-22T00:08:21;21.70;1.00
50969;DHT22;36982;51.474;7.228;2023-06-22T00:10:47;21.70;29.40
50969;DHT22;36982;51.474;7.228;2023-06-22T00:13:13;21.60;99.90
50969;DHT22;36982;51.474;7.228;2023-06-22T00:15:41;21.60;99.90
50969;DHT22;36982;51.474;7.228;2023-06-22T00:18:08;21.70;99.90
50969;DHT22;36982;51.474;7.228;2023-06-22T00:20:34;21.70;99.90
50969;DHT22;36982;51.474;7.228;2023-06-22T00:23:03;21.80;99.90
50969;DHT22;36982;51.474;7.228;2023-06-22T00:25:36;21.80;99.90
50969;DHT22;36982;51.474;7.228;2023-06-22T00:28:03;21.70;99.90
50969;DHT22;36982;51.474;7.228;2023-06-22T00:30:30;21.70;99.90
50969;DHT22;36982;51.474;7.228;2023-06-22T00:32:55;21.80;99.90
50969;DHT22;36982;51.474;7.228;2023-06-22T00:35:21;21.80;99.90
50969;DHT22;36982;51.474;7.228;2023-06-22T00:37:47;21.80;99.90
50969;DHT22;36982;51.474;7.228;2023-06-22T00:40:13;21.80;99.90
50969;DHT22;36982;51.474;7.228;2023-06-22T00:42:43;21.80;99.90
50969;DHT22;36982;51.474;7.228;2023-06-22T00:45:09;21.80;99.90
50969;DHT22;36982;51.474;7.228;2023-06-22T00:47:35;21.80;99.90
50969;DHT22;36982;51.474;7.228;2023-06-22T00:50:02;21.60;99.90
50969;DHT22;36982;51.474;7.228;2023-06-22T00:52:29;21.50;91.60
50969;DHT22;36982;51.474;7.228;2023-06-22T00:54:59;21.50;99.90
50969;DHT22;36982;51.474;7.228;2023-06-22T00:57:27;21.50;99.90
50969;DHT22;36982;51.474;7.228;2023-06-22T00:59:53;21.60;99.90
50969;DHT22;36982;51.474;7.228;2023-06-22T01:02:19;21.50;99.90
50969;DHT22;36982;51.474;7.228;2023-06-22T01:04:44;21.60;99.90
50969;DHT22;36982;51.474;7.228;2023-06-22T01:12:55;21.40;1.00
50969;DHT22;36982;51.474;7.228;2023-06-22T01:15:32;21.50;99.90
50969;DHT22;36982;51.474;7.228;2023-06-22T01:17:59;21.30;99.90
50969;DHT22;36982;51.474;7.228;2023-06-22T01:20:28;21.30;1.00
50969;DHT22;36982;51.474;7.228;2023-06-22T01:23:20;21.40;99.90
50969;DHT22;36982;51.474;7.228;2023-06-22T01:25:57;21.40;99.90
50969;DHT22;36982;51.474;7.228;2023-06-22T01:31:10;21.30;90.30
50969;DHT22;36982;51.474;7.228;2023-06-22T01:33:40;21.30;99.90
50969;DHT22;36982;51.474;7.228;2023-06-22T01:36:06;21.20;99.90
50969;DHT22;36982;51.474;7.228;2023-06-22T01:38:33;21.20;99.90
50969;DHT22;36982;51.474;7.228;2023-06-22T01:40:59;21.20;1.00
50969;DHT22;36982;51.474;7.228;2023-06-22T01:43:27;21.20;99.90
50969;DHT22;36982;51.474;7.228;2023-06-22T01:45:54;21.20;99.90
50969;DHT22;36982;51.474;7.228;2023-06-22T01:48:21;21.20;99.90
50969;DHT22;36982;51.474;7.228;2023-06-22T01:50:47;21.30;52.00
50969;DHT22;36982;51.474;7.228;2023-06-22T01:53:13;21.10;99.90
50969;DHT22;36982;51.474;7.228;2023-06-22T01:55:39;21.10;99.90
50969;DHT22;36982;51.474;7.228;2023-06-22T01:58:04;21.10;1.00
50969;DHT22;36982;51.474;7.228;2023-06-22T02:00:33;21.20;1.00
50969;DHT22;36982;51.474;7.228;2023-06-22T02:03:03;21.10;1.00
50969;DHT22;36982;51.474;7.228;2023-06-22T02:05:38;21.20;1.00
50969;DHT22;36982;51.474;7.228;2023-06-22T02:08:11;21.20;98.40
50969;DHT22;36982;51.474;7.228;2023-06-22T02:10:38;21.10;41.60
50969;DHT22;36982;51.474;7.228;2023-06-22T02:13:07;21.00;99.90
50969;DHT22;36982;51.474;7.228;2023-06-22T02:15:34;21.10;99.90
50969;DHT22;36982;51.474;7.228;2023-06-22T02:18:00;21.20;99.90
50969;DHT22;36982;51.474;7.228;2023-06-22T02:20:26;21.20;99.90
50969;DHT22;36982;51.474;7.228;2023-06-22T02:22:51;21.20;99.90
50969;DHT22;36982;51.474;7.228;2023-06-22T02:25:17;21.20;99.90
50969;DHT22;36982;51.474;7.228;2023-06-22T02:27:42;21.20;1.00
50969;DHT22;36982;51.474;7.228;2023-06-22T02:30:08;21.20;99.90
50969;DHT22;36982;51.474;7.228;2023-06-22T02:32:37;21.20;99.90
50969;DHT22;36982;51.474;7.228;2023-06-22T02:35:03;21.10;99.90
50969;DHT22;36982;51.474;7.228;2023-06-22T02:37:32;21.00;99.90
50969;DHT22;36982;51.474;7.228;2023-06-22T02:39:57;21.00;7.40
50969;DHT22;36982;51.474;7.228;2023-06-22T02:42:23;21.00;92.70
50969;DHT22;36982;51.474;7.228;2023-06-22T02:44:48;21.00;99.90
50969;DHT22;36982;51.474;7.228;2023-06-22T02:47:15;21.10;99.90
50969;DHT22;36982;51.474;7.228;2023-06-22T02:49:40;21.10;99.90
50969;DHT22;36982;51.474;7.228;2023-06-22T02:52:07;21.10;99.90
50969;DHT22;36982;51.474;7.228;2023-06-22T02:54:32;21.10;9.70
50969;DHT22;36982;51.474;7.228;2023-06-22T02:56:59;21.10;1.00
50969;DHT22;36982;51.474;7.228;2023-06-22T02:59:28;21.10;99.90
50969;DHT22;36982;51.474;7.228;2023-06-22T03:01:53;21.20;99.90
50969;DHT22;36982;51.474;7.228;2023-06-22T03:04:19;21.20;1.00
50969;DHT22;36982;51.474;7.228;2023-06-22T03:06:45;21.00;99.90
50969;DHT22;36982;51.474;7.228;2023-06-22T03:09:16;21.10;99.90
50969;DHT22;36982;51.474;7.228;2023-06-22T03:11:42;21.10;99.90
50969;DHT22;36982;51.474;7.228;2023-06-22T03:14:08;20.90;99.90
50969;DHT22;36982;51.474;7.228;2023-06-22T03:16:33;20.90;1.00
50969;DHT22;36982;51.474;7.228;2023-06-22T03:18:59;20.90;99.90
50969;DHT22;36982;51.474;7.228;2023-06-22T03:21:28;20.90;1.00
50969;DHT22;36982;51.474;7.228;2023-06-22T03:23:54;20.80;1.00
50969;DHT22;36982;51.474;7.228;2023-06-22T03:26:20;20.90;1.00
50969;DHT22;36982;51.474;7.228;2023-06-22T03:28:46;20.90;1.00
50969;DHT22;36982;51.474;7.228;2023-06-22T03:31:11;20.90;1.00
50969;DHT22;36982;51.474;7.228;2023-06-22T03:33:37;20.70;4.50
50969;DHT22;36982;51.474;7.228;2023-06-22T03:36:03;20.80;22.70
50969;DHT22;36982;51.474;7.228;2023-06-22T03:38:29;20.70;74.80
50969;DHT22;36982;51.474;7.228;2023-06-22T03:40:54;20.70;99.90
50969;DHT22;36982;51.474;7.228;2023-06-22T03:43:20;20.80;78.80
50969;DHT22;36982;51.474;7.228;2023-06-22T03:45:45;20.70;19.00
50969;DHT22;36982;51.474;7.228;2023-06-22T03:48:12;20.80;1.00
50969;DHT22;36982;51.474;7.228;2023-06-22T03:50:37;20.70;47.20
50969;DHT22;36982;51.474;7.228;2023-06-22T03:53:03;20.70;74.30
50969;DHT22;36982;51.474;7.228;2023-06-22T03:55:28;20.70;96.10
50969;DHT22;36982;51.474;7.228;2023-06-22T03:57:54;20.70;51.10
50969;DHT22;36982;51.474;7.228;2023-06-22T04:00:25;20.70;44.50
50969;DHT22;36982;51.474;7.228;2023-06-22T04:02:50;20.60;99.90
50969;DHT22;36982;51.474;7.228;2023-06-22T04:05:16;20.50;99.90
50969;DHT22;36982;51.474;7.228;2023-06-22T04:07:44;20.60;99.90
50969;DHT22;36982;51.474;7.228;2023-06-22T04:10:10;20.60;99.90
50969;DHT22;36982;51.474;7.228;2023-06-22T04:12:35;20.60;99.90
50969;DHT22;36982;51.474;7.228;2023-06-22T04:15:04;20.80;99.90
50969;DHT22;36982;51.474;7.228;2023-06-22T04:17:30;20.80;61.50
50969;DHT22;36982;51.474;7.228;2023-06-22T04:19:56;20.80;99.90
50969;DHT22;36982;51.474;7.228;2023-06-22T04:22:21;20.80;71.00
50969;DHT22;36982;51.474;7.228;2023-06-22T04:24:47;20.80;54.80
50969;DHT22;36982;51.474;7.228;2023-06-22T04:27:12;20.90;44.90
50969;DHT22;36982;51.474;7.228;2023-06-22T04:29:38;20.90;28.30
50969;DHT22;36982;51.474;7.228;2023-06-22T04:32:09;21.10;20.90
50969;DHT22;36982;51.474;7.228;2023-06-22T04:34:34;21.00;1.00
50969;DHT22;36982;51.474;7.228;2023-06-22T04:37:00;21.00;1.00
50969;DHT22;36982;51.474;7.228;2023-06-22T04:39:25;20.90;12.40
50969;DHT22;36982;51.474;7.228;2023-06-22T04:41:52;21.00;7.90
50969;DHT22;36982;51.474;7.228;2023-06-22T04:44:18;20.80;75.50
50969;DHT22;36982;51.474;7.228;2023-06-22T04:46:51;20.70;99.90
50969;DHT22;36982;51.474;7.228;2023-06-22T04:49:26;20.70;99.90
50969;DHT22;36982;51.474;7.228;2023-06-22T04:51:58;20.70;99.90
50969;DHT22;36982;51.474;7.228;2023-06-22T04:54:23;20.70;99.90
50969;DHT22;36982;51.474;7.228;2023-06-22T04:56:49;20.80;99.90
50969;DHT22;36982;51.474;7.228;2023-06-22T04:59:28;20.70;99.90
50969;DHT22;36982;51.474;7.228;2023-06-22T05:02:00;20.70;99.90
50969;DHT22;36982;51.474;7.228;2023-06-22T05:04:27;20.80;99.90
50969;DHT22;36982;51.474;7.228;2023-06-22T05:06:57;20.80;99.90
50969;DHT22;36982;51.474;7.228;2023-06-22T05:09:23;20.80;99.90
50969;DHT22;36982;51.474;7.228;2023-06-22T05:11:51;20.70;99.90
50969;DHT22;36982;51.474;7.228;2023-06-22T05:14:17;20.80;99.90
50969;DHT22;36982;51.474;7.228;2023-06-22T05:16:44;20.70;99.90
50969;DHT22;36982;51.474;7.228;2023-06-22T05:19:09;20.70;99.90
50969;DHT22;36982;51.474;7.228;2023-06-22T05:21:35;20.70;99.90
50969;DHT22;36982;51.474;7.228;2023-06-22T05:24:01;20.60;99.90
50969;DHT22;36982;51.474;7.228;2023-06-22T05:26:29;20.60;99.90
50969;DHT22;36982;51.474;7.228;2023-06-22T05:28:54;20.60;99.90
50969;DHT22;36982;51.474;7.228;2023-06-22T05:31:20;20.80;99.90
50969;DHT22;36982;51.474;7.228;2023-06-22T05:33:47;20.80;99.90
50969;DHT22;36982;51.474;7.228;2023-06-22T05:36:13;20.80;99.90
50969;DHT22;36982;51.474;7.228;2023-06-22T05:38:40;20.80;99.90
50969;DHT22;36982;51.474;7.228;2023-06-22T05:41:06;20.70;99.90
50969;DHT22;36982;51.474;7.228;2023-06-22T05:43:32;20.70;99.90
50969;DHT22;36982;51.474;7.228;2023-06-22T05:46:00;20.70;99.90
50969;DHT22;36982;51.474;7.228;2023-06-22T05:48:26;20.70;99.90
50969;DHT22;36982;51.474;7.228;2023-06-22T05:50:52;20.70;99.90
50969;DHT22;36982;51.474;7.228;2023-06-22T05:53:17;20.70;99.90
50969;DHT22;36982;51.474;7.228;2023-06-22T05:55:43;20.90;99.90
50969;DHT22;36982;51.474;7.228;2023-06-22T05:58:09;21.10;99.90
50969;DHT22;36982;51.474;7.228;2023-06-22T06:00:35;21.10;99.90
50969;DHT22;36982;51.474;7.228;2023-06-22T06:03:00;21.10;86.30
50969;DHT22;36982;51.474;7.228;2023-06-22T06:05:35;21.20;19.40
50969;DHT22;36982;51.474;7.228;2023-06-22T06:08:02;21.30;99.90
50969;DHT22;36982;51.474;7.228;2023-06-22T06:10:30;21.30;99.90
50969;DHT22;36982;51.474;7.228;2023-06-22T06:12:56;21.30;99.90
50969;DHT22;36982;51.474;7.228;2023-06-22T06:15:22;21.50;99.90
50969;DHT22;36982;51.474;7.228;2023-06-22T06:17:52;21.50;99.90
50969;DHT22;36982;51.474;7.228;2023-06-22T06:20:22;21.50;99.90
50969;DHT22;36982;51.474;7.228;2023-06-22T06:22:49;21.40;99.90
50969;DHT22;36982;51.474;7.228;2023-06-22T06:25:15;21.60;99.90
50969;DHT22;36982;51.474;7.228;2023-06-22T06:27:49;21.60;26.40
50969;DHT22;36982;51.474;7.228;2023-06-22T06:30:16;21.60;99.90
50969;DHT22;36982;51.474;7.228;2023-06-22T06:32:43;21.60;99.90
50969;DHT22;36982;51.474;7.228;2023-06-22T06:35:11;21.60;99.90
50969;DHT22;36982;51.474;7.228;2023-06-22T06:37:42;21.80;99.90
50969;DHT22;36982;51.474;7.228;2023-06-22T06:40:08;21.70;1.00
50969;DHT22;36982;51.474;7.228;2023-06-22T06:42:37;21.50;99.90
50969;DHT22;36982;51.474;7.228;2023-06-22T06:45:04;21.60;1.00
50969;DHT22;36982;51.474;7.228;2023-06-22T06:47:30;21.60;1.00
50969;DHT22;36982;51.474;7.228;2023-06-22T06:49:56;21.80;99.90
50969;DHT22;36982;51.474;7.228;2023-06-22T06:52:21;21.80;1.00
50969;DHT22;36982;51.474;7.228;2023-06-22T06:54:47;21.90;99.90
50969;DHT22;36982;51.474;7.228;2023-06-22T06:57:12;22.00;99.90
50969;DHT22;36982;51.474;7.228;2023-06-22T06:59:39;22.00;1.00
50969;DHT22;36982;51.474;7.228;2023-06-22T07:02:04;22.10;1.00
50969;DHT22;36982;51.474;7.228;2023-06-22T07:04:30;22.10;99.90
50969;DHT22;36982;51.474;7.228;2023-06-22T07:06:56;22.10;99.90
50969;DHT22;36982;51.474;7.228;2023-06-22T07:09:21;22.10;99.90
50969;DHT22;36982;51.474;7.228;2023-06-22T07:11:47;22.10;99.90
50969;DHT22;36982;51.474;7.228;2023-06-22T07:14:12;22.10;1.00
50969;DHT22;36982;51.474;7.228;2023-06-22T07:16:38;22.20;1.00
50969;DHT22;36982;51.474;7.228;2023-06-22T07:19:03;22.30;99.90
50969;DHT22;36982;51.474;7.228;2023-06-22T07:21:29;22.20;99.90
50969;DHT22;36982;51.474;7.228;2023-06-22T07:23:54;22.30;99.90
50969;DHT22;36982;51.474;7.228;2023-06-22T07:26:20;22.40;99.90
50969;DHT22;36982;51.474;7.228;2023-06-22T07:28:46;22.40;99.90
50969;DHT22;36982;51.474;7.228;2023-06-22T07:31:11;22.30;99.90
50969;DHT22;36982;51.474;7.228;2023-06-22T07:33:37;22.30;99.90
50969;DHT22;36982;51.474;7.228;2023-06-22T07:36:03;22.40;1.00
50969;DHT22;36982;51.474;7.228;2023-06-22T07:38:33;22.30;87.60
50969;DHT22;36982;51.474;7.228;2023-06-22T07:40:58;22.20;99.90
50969;DHT22;36982;51.474;7.228;2023-06-22T07:43:24;22.20;99.90
50969;DHT22;36982;51.474;7.228;2023-06-22T07:45:50;22.30;1.00
50969;DHT22;36982;51.474;7.228;2023-06-22T07:48:22;22.20;99.90
50969;DHT22;36982;51.474;7.228;2023-06-22T07:50:48;22.20;99.90
50969;DHT22;36982;51.474;7.228;2023-06-22T07:53:14;22.40;99.90
50969;DHT22;36982;51.474;7.228;2023-06-22T07:55:39;22.50;99.90
50969;DHT22;36982;51.474;7.228;2023-06-22T07:58:05;22.60;99.90
50969;DHT22;36982;51.474;7.228;2023-06-22T08:00:31;22.70;99.90
50969;DHT22;36982;51.474;7.228;2023-06-22T08:02:58;22.70;99.90
50969;DHT22;36982;51.474;7.228;2023-06-22T08:05:23;22.80;99.90
50969;DHT22;36982;51.474;7.228;2023-06-22T08:07:49;22.70;99.90
50969;DHT22;36982;51.474;7.228;2023-06-22T08:10:15;22.70;99.90
50969;DHT22;36982;51.474;7.228;2023-06-22T08:12:41;22.30;99.90
50969;DHT22;36982;51.474;7.228;2023-06-22T08:15:07;21.90;1.00
50969;DHT22;36982;51.474;7.228;2023-06-22T08:17:33;22.00;1.00
50969;DHT22;36982;51.474;7.228;2023-06-22T08:19:59;22.10;1.00
50969;DHT22;36982;51.474;7.228;2023-06-22T08:22:24;22.30;1.00
50969;DHT22;36982;51.474;7.228;2023-06-22T08:24:50;22.20;1.00
50969;DHT22;36982;51.474;7.228;2023-06-22T08:27:16;22.10;1.00
50969;DHT22;36982;51.474;7.228;2023-06-22T08:29:43;22.10;1.00
50969;DHT22;36982;51.474;7.228;2023-06-22T08:32:11;22.10;1.00
50969;DHT22;36982;51.474;7.228;2023-06-22T08:34:37;22.20;1.00
50969;DHT22;36982;51.474;7.228;2023-06-22T08:37:02;22.20;1.00
50969;DHT22;36982;51.474;7.228;2023-06-22T08:39:32;22.20;1.00
50969;DHT22;36982;51.474;7.228;2023-06-22T08:41:57;22.30;1.00
50969;DHT22;36982;51.474;7.228;2023-06-22T08:44:23;22.60;99.90
50969;DHT22;36982;51.474;7.228;2023-06-22T08:46:48;22.60;99.90
50969;DHT22;36982;51.474;7.228;2023-06-22T08:49:14;22.90;99.90
50969;DHT22;36982;51.474;7.228;2023-06-22T08:51:40;22.80;99.90
50969;DHT22;36982;51.474;7.228;2023-06-22T08:54:38;23.10;99.90
50969;DHT22;36982;51.474;7.228;2023-06-22T08:57:04;22.70;99.90
50969;DHT22;36982;51.474;7.228;2023-06-22T08:59:29;22.70;99.90
50969;DHT22;36982;51.474;7.228;2023-06-22T09:01:55;22.90;99.90
50969;DHT22;36982;51.474;7.228;2023-06-22T09:04:21;23.00;1.00
50969;DHT22;36982;51.474;7.228;2023-06-22T09:06:48;23.00;99.90
50969;DHT22;36982;51.474;7.228;2023-06-22T09:09:13;23.00;99.90
50969;DHT22;36982;51.474;7.228;2023-06-22T09:11:40;23.20;99.90
50969;DHT22;36982;51.474;7.228;2023-06-22T09:14:06;23.30;99.90
50969;DHT22;36982;51.474;7.228;2023-06-22T09:16:32;23.30;1.00
50969;DHT22;36982;51.474;7.228;2023-06-22T09:18:57;23.20;99.90
50969;DHT22;36982;51.474;7.228;2023-06-22T09:21:23;23.20;99.90
50969;DHT22;36982;51.474;7.228;2023-06-22T09:23:49;23.30;99.90
50969;DHT22;36982;51.474;7.228;2023-06-22T09:26:17;23.30;99.90
50969;DHT22;36982;51.474;7.228;2023-06-22T09:28:43;23.50;99.90
50969;DHT22;36982;51.474;7.228;2023-06-22T09:31:08;23.60;99.90
50969;DHT22;36982;51.474;7.228;2023-06-22T09:33:35;23.70;99.90
50969;DHT22;36982;51.474;7.228;2023-06-22T09:36:01;23.70;99.90
50969;DHT22;36982;51.474;7.228;2023-06-22T09:38:27;23.80;99.90
50969;DHT22;36982;51.474;7.228;2023-06-22T09:40:52;24.10;99.90
50969;DHT22;36982;51.474;7.228;2023-06-22T09:43:18;24.30;99.90
50969;DHT22;36982;51.474;7.228;2023-06-22T09:45:43;24.50;99.90
50969;DHT22;36982;51.474;7.228;2023-06-22T09:48:09;24.70;25.30
50969;DHT22;36982;51.474;7.228;2023-06-22T09:50:37;25.00;99.90
50969;DHT22;36982;51.474;7.228;2023-06-22T09:53:03;25.10;99.90
50969;DHT22;36982;51.474;7.228;2023-06-22T09:55:28;25.30;1.00
50969;DHT22;36982;51.474;7.228;2023-06-22T09:57:54;25.50;99.90
50969;DHT22;36982;51.474;7.228;2023-06-22T10:00:21;25.50;99.90
50969;DHT22;36982;51.474;7.228;2023-06-22T10:02:47;25.70;12.30
50969;DHT22;36982;51.474;7.228;2023-06-22T10:05:13;25.80;1.00
50969;DHT22;36982;51.474;7.228;2023-06-22T10:07:39;25.70;1.00
50969;DHT22;36982;51.474;7.228;2023-06-22T10:10:08;25.70;1.00
50969;DHT22;36982;51.474;7.228;2023-06-22T10:12:34;26.00;99.90
50969;DHT22;36982;51.474;7.228;2023-06-22T10:14:59;26.10;99.90
50969;DHT22;36982;51.474;7.228;2023-06-22T10:17:25;26.00;6.30
50969;DHT22;36982;51.474;7.228;2023-06-22T10:19:51;26.10;1.00
50969;DHT22;36982;51.474;7.228;2023-06-22T10:22:16;25.80;1.00
50969;DHT22;36982;51.474;7.228;2023-06-22T10:24:42;25.60;1.00
50969;DHT22;36982;51.474;7.228;2023-06-22T10:27:11;25.70;1.00
50969;DHT22;36982;51.474;7.228;2023-06-22T10:29:37;25.90;1.00
50969;DHT22;36982;51.474;7.228;2023-06-22T10:32:03;26.20;99.90
50969;DHT22;36982;51.474;7.228;2023-06-22T10:34:29;26.30;99.90
50969;DHT22;36982;51.474;7.228;2023-06-22T10:36:54;26.40;99.90
50969;DHT22;36982;51.474;7.228;2023-06-22T10:39:20;26.50;17.00
50969;DHT22;36982;51.474;7.228;2023-06-22T10:41:46;26.50;1.00
50969;DHT22;36982;51.474;7.228;2023-06-22T10:44:11;26.30;1.00
50969;DHT22;36982;51.474;7.228;2023-06-22T10:46:37;26.40;5.50
50969;DHT22;36982;51.474;7.228;2023-06-22T10:49:03;26.60;1.00
50969;DHT22;36982;51.474;7.228;2023-06-22T10:51:29;26.70;1.00
50969;DHT22;36982;51.474;7.228;2023-06-22T10:53:54;26.60;1.00
50969;DHT22;36982;51.474;7.228;2023-06-22T10:56:20;26.40;1.00
50969;DHT22;36982;51.474;7.228;2023-06-22T10:58:46;26.50;1.00
50969;DHT22;36982;51.474;7.228;2023-06-22T11:01:11;26.30;1.00
50969;DHT22;36982;51.474;7.228;2023-06-22T11:03:37;26.30;1.00
50969;DHT22;36982;51.474;7.228;2023-06-22T11:06:03;26.30;1.00
50969;DHT22;36982;51.474;7.228;2023-06-22T11:08:28;26.40;1.00
50969;DHT22;36982;51.474;7.228;2023-06-22T11:10:54;26.40;1.00
50969;DHT22;36982;51.474;7.228;2023-06-22T11:13:19;26.10;1.00
50969;DHT22;36982;51.474;7.228;2023-06-22T11:15:45;26.00;1.00
50969;DHT22;36982;51.474;7.228;2023-06-22T11:18:10;25.80;18.10
50969;DHT22;36982;51.474;7.228;2023-06-22T11:20:36;25.80;99.90
50969;DHT22;36982;51.474;7.228;2023-06-22T11:23:07;25.80;97.00
50969;DHT22;36982;51.474;7.228;2023-06-22T11:25:33;25.80;99.90
50969;DHT22;36982;51.474;7.228;2023-06-22T11:28:04;25.60;99.90
50969;DHT22;36982;51.474;7.228;2023-06-22T11:30:30;25.40;99.90
50969;DHT22;36982;51.474;7.228;2023-06-22T11:32:58;25.20;2.70
50969;DHT22;36982;51.474;7.228;2023-06-22T11:35:23;25.10;99.90
50969;DHT22;36982;51.474;7.228;2023-06-22T11:37:49;24.90;99.90
50969;DHT22;36982;51.474;7.228;2023-06-22T11:40:15;24.80;99.90
50969;DHT22;36982;51.474;7.228;2023-06-22T11:42:40;24.40;1.00
50969;DHT22;36982;51.474;7.228;2023-06-22T11:45:06;24.30;1.00
50969;DHT22;36982;51.474;7.228;2023-06-22T11:47:32;24.10;1.00
50969;DHT22;36982;51.474;7.228;2023-06-22T11:49:58;24.00;1.00
50969;DHT22;36982;51.474;7.228;2023-06-22T11:52:23;23.80;1.00
50969;DHT22;36982;51.474;7.228;2023-06-22T11:54:49;23.80;1.00
50969;DHT22;36982;51.474;7.228;2023-06-22T11:57:14;23.60;1.00
50969;DHT22;36982;51.474;7.228;2023-06-22T11:59:40;23.40;2.00
50969;DHT22;36982;51.474;7.228;2023-06-22T12:02:05;23.30;14.30
50969;DHT22;36982;51.474;7.228;2023-06-22T12:04:33;23.10;20.90
50969;DHT22;36982;51.474;7.228;2023-06-22T12:06:58;23.00;26.10
50969;DHT22;36982;51.474;7.228;2023-06-22T12:09:24;22.70;39.90
50969;DHT22;36982;51.474;7.228;2023-06-22T12:11:49;22.50;48.50
50969;DHT22;36982;51.474;7.228;2023-06-22T12:14:15;22.20;64.20
50969;DHT22;36982;51.474;7.228;2023-06-22T12:16:40;22.00;76.50
50969;DHT22;36982;51.474;7.228;2023-06-22T12:19:06;22.00;82.80
50969;DHT22;36982;51.474;7.228;2023-06-22T12:21:32;21.90;86.60
50969;DHT22;36982;51.474;7.228;2023-06-22T12:23:57;21.90;90.50
50969;DHT22;36982;51.474;7.228;2023-06-22T12:26:23;21.80;90.90
50969;DHT22;36982;51.474;7.228;2023-06-22T12:28:48;21.70;91.60
50969;DHT22;36982;51.474;7.228;2023-06-22T12:31:14;21.80;92.00
50969;DHT22;36982;51.474;7.228;2023-06-22T12:33:40;21.80;92.40
50969;DHT22;36982;51.474;7.228;2023-06-22T12:36:05;21.90;92.80
50969;DHT22;36982;51.474;7.228;2023-06-22T12:38:31;21.90;92.60
50969;DHT22;36982;51.474;7.228;2023-06-22T12:40:56;21.90;92.60
50969;DHT22;36982;51.474;7.228;2023-06-22T12:43:22;21.80;92.60
50969;DHT22;36982;51.474;7.228;2023-06-22T12:45:48;21.90;93.00
50969;DHT22;36982;51.474;7.228;2023-06-22T12:48:13;21.80;92.80
50969;DHT22;36982;51.474;7.228;2023-06-22T12:50:39;21.90;92.60
50969;DHT22;36982;51.474;7.228;2023-06-22T12:53:04;21.90;92.70
50969;DHT22;36982;51.474;7.228;2023-06-22T12:55:31;21.90;92.40
50969;DHT22;36982;51.474;7.228;2023-06-22T12:57:57;21.90;91.60
50969;DHT22;36982;51.474;7.228;2023-06-22T13:00:23;21.90;89.90
50969;DHT22;36982;51.474;7.228;2023-06-22T13:02:48;21.80;90.60
50969;DHT22;36982;51.474;7.228;2023-06-22T13:05:14;21.60;92.30
50969;DHT22;36982;51.474;7.228;2023-06-22T13:07:40;21.60;93.30
50969;DHT22;36982;51.474;7.228;2023-06-22T13:10:07;21.60;93.90
50969;DHT22;36982;51.474;7.228;2023-06-22T13:12:33;21.40;93.60
50969;DHT22;36982;51.474;7.228;2023-06-22T13:14:59;21.40;94.20
50969;DHT22;36982;51.474;7.228;2023-06-22T13:17:24;21.40;94.30
50969;DHT22;36982;51.474;7.228;2023-06-22T13:19:50;21.40;94.30
50969;DHT22;36982;51.474;7.228;2023-06-22T13:22:45;21.40;94.50
50969;DHT22;36982;51.474;7.228;2023-06-22T13:25:10;21.60;94.70
50969;DHT22;36982;51.474;7.228;2023-06-22T13:27:39;21.70;93.40
50969;DHT22;36982;51.474;7.228;2023-06-22T13:30:05;22.00;92.00
50969;DHT22;36982;51.474;7.228;2023-06-22T13:32:30;22.10;90.10
50969;DHT22;36982;51.474;7.228;2023-06-22T13:34:56;22.20;79.70
50969;DHT22;36982;51.474;7.228;2023-06-22T13:37:22;22.20;82.90
50969;DHT22;36982;51.474;7.228;2023-06-22T13:39:47;22.30;80.50
50969;DHT22;36982;51.474;7.228;2023-06-22T13:42:13;22.30;79.90
50969;DHT22;36982;51.474;7.228;2023-06-22T13:44:38;22.20;81.40
50969;DHT22;36982;51.474;7.228;2023-06-22T13:47:05;22.10;83.20
50969;DHT22;36982;51.474;7.228;2023-06-22T13:49:31;22.20;85.30
50969;DHT22;36982;51.474;7.228;2023-06-22T13:51:57;22.20;86.50
50969;DHT22;36982;51.474;7.228;2023-06-22T13:54:23;22.20;86.20
50969;DHT22;36982;51.474;7.228;2023-06-22T13:56:48;22.20;83.60
50969;DHT22;36982;51.474;7.228;2023-06-22T13:59:14;22.30;85.60
50969;DHT22;36982;51.474;7.228;2023-06-22T14:01:39;22.50;81.10
50969;DHT22;36982;51.474;7.228;2023-06-22T14:04:06;22.60;71.10
50969;DHT22;36982;51.474;7.228;2023-06-22T14:06:31;22.40;75.20
50969;DHT22;36982;51.474;7.228;2023-06-22T14:08:57;22.60;80.30
50969;DHT22;36982;51.474;7.228;2023-06-22T14:11:24;22.90;70.10
50969;DHT22;36982;51.474;7.228;2023-06-22T14:13:50;23.00;52.30
50969;DHT22;36982;51.474;7.228;2023-06-22T14:16:15;23.00;50.00
50969;DHT22;36982;51.474;7.228;2023-06-22T14:18:41;23.00;48.90
50969;DHT22;36982;51.474;7.228;2023-06-22T14:21:07;23.00;52.50
50969;DHT22;36982;51.474;7.228;2023-06-22T14:23:33;22.90;33.20
50969;DHT22;36982;51.474;7.228;2023-06-22T14:25:58;22.70;36.70
50969;DHT22;36982;51.474;7.228;2023-06-22T14:28:24;22.70;39.30
50969;DHT22;36982;51.474;7.228;2023-06-22T14:30:49;22.50;35.70
50969;DHT22;36982;51.474;7.228;2023-06-22T14:33:15;22.30;45.30
50969;DHT22;36982;51.474;7.228;2023-06-22T14:35:41;22.30;58.30
50969;DHT22;36982;51.474;7.228;2023-06-22T14:38:06;22.30;59.70
50969;DHT22;36982;51.474;7.228;2023-06-22T14:40:32;22.30;60.10
50969;DHT22;36982;51.474;7.228;2023-06-22T14:42:57;22.30;61.10
50969;DHT22;36982;51.474;7.228;2023-06-22T14:45:23;22.40;65.70
50969;DHT22;36982;51.474;7.228;2023-06-22T14:47:49;22.50;61.10
50969;DHT22;36982;51.474;7.228;2023-06-22T14:50:15;22.60;53.60
50969;DHT22;36982;51.474;7.228;2023-06-22T14:52:40;22.60;49.80
50969;DHT22;36982;51.474;7.228;2023-06-22T14:55:06;22.60;53.30
50969;DHT22;36982;51.474;7.228;2023-06-22T14:57:32;22.50;49.50
50969;DHT22;36982;51.474;7.228;2023-06-22T14:59:57;22.30;56.40
50969;DHT22;36982;51.474;7.228;2023-06-22T15:02:23;22.20;65.60
50969;DHT22;36982;51.474;7.228;2023-06-22T15:04:49;22.10;68.10
50969;DHT22;36982;51.474;7.228;2023-06-22T15:07:15;22.10;67.80
50969;DHT22;36982;51.474;7.228;2023-06-22T15:09:40;22.00;72.60
50969;DHT22;36982;51.474;7.228;2023-06-22T15:12:08;22.10;74.10
50969;DHT22;36982;51.474;7.228;2023-06-22T15:14:39;22.10;78.20
50969;DHT22;36982;51.474;7.228;2023-06-22T15:17:05;22.00;82.20
50969;DHT22;36982;51.474;7.228;2023-06-22T15:19:30;22.00;80.80
50969;DHT22;36982;51.474;7.228;2023-06-22T15:21:56;22.00;80.40
50969;DHT22;36982;51.474;7.228;2023-06-22T15:24:21;22.00;78.70
50969;DHT22;36982;51.474;7.228;2023-06-22T15:26:47;21.80;82.70
50969;DHT22;36982;51.474;7.228;2023-06-22T15:29:13;21.80;82.40
50969;DHT22;36982;51.474;7.228;2023-06-22T15:31:38;21.80;82.20
50969;DHT22;36982;51.474;7.228;2023-06-22T15:34:04;21.80;82.90
50969;DHT22;36982;51.474;7.228;2023-06-22T15:36:29;21.70;82.50
50969;DHT22;36982;51.474;7.228;2023-06-22T15:38:55;21.70;82.60